OIAH  Gachsaran Airport

Add Bookmark

Iran

Status
Operational
Latitude Longitude
30° 20' 15" N 50° 49' 40" E
30.337601 50.827999
Local (DST + 5) UTC (GMT + 4)
Aug 1, 2014 08:13 Aug 1, 2014 03:43
Sunrise-Sunset Local UTC
Begin Civil Twilight 05:57 01:27
Sunrise 06:23 01:53
Sunset 08:02 15:32
End Civil Twilight 08:28 15:58

Current Weather

METAR Observed VFR
OIAH 010200Z VRB02KT CAVOK 26/14 Q1003 Fri, Aug 1, 2014 @ 02:00 UTC
(1 Hour, 43 Minutes ago)
Visual Flight Rules

Decoded METAR

Wind Visibility Clouds Conditions
Varies at 2 knots (4 kph) 10 km or more
  • Clear skies
  • No significant weather
Temperatures Readings Precipitation
Current Temp 26°C (79°F)
Dewpoint 14°C (57°F)
Humidity 48%
Altimeter 29.62"Hg
Sea Level Pressure 1003mb
Field Elevation 2421.26'
None Recorded

Additional weather within a 92.6km radius of OIAH

Map ICAO Location
OISY 79.6km E (059°)

24 Hour Weather History

Loading
-

24 Hour Weather Graphs

Loading
-

CheckWX.com is intended as a tool to help pilots better visualize weather data. It is not intended as a substitute for an official weather briefing obtained from a Flight Service Station. CheckWX.com does not meet the FAA requirements for an official pre-flight weather briefing. Therefore, it's important that pilots still call and obtain an official FSS pre-flight weather briefing.